ULLI/LED METAR and TAF weather

Enter ICAO airport designator
Station Type Date Time Source
ULLI METAR 2024/04/18 07:00 UTC NOAA

ULLI 180700Z 07003MPS 040V120 9999 OVC027 M01/M07 Q1013 R10L/090060 NOSIG


Station Type Date Time Source
ULLI Decoded METAR 2024/04/18 07:00 UTC NOAA

St. Peterburg, Russia (ULLI) 59-58N 030-18E 6M
Apr 18, 2024 - 03:00 AM EDT / 2024.04.18 0700 UTC
Wind: from the ENE (070 degrees) at 7 MPH (6 KT) (direction variable):0
Visibility: greater than 7 mile(s):0
Sky conditions: overcast
Temperature: 30 F (-1 C)
Windchill: 23 F (-5 C):1
Dew Point: 19 F (-7 C)
Relative Humidity: 63%
Pressure (altimeter): 29.91 in. Hg (1013 hPa)
ob: ULLI 180700Z 07003MPS 040V120 9999 OVC027 M01/M07 Q1013 R10L/090060 NOSIG
cycle: 7

Station Type Date Time Source
ULLI TAF 2024/04/18 21:21 UTC NOAA